Terminal Aerodrome Forecast
Issued by NWS

Home | Current Version | Previous Version | Text Only | Print | Product List | Glossary On
Versions: 1 2 3 4 5 6 7 8 9 10 11 12 13 14 15 16
000
FTUS41 KBOX 220933 AAA
TAFHYA
TAF AMD
KHYA 220933Z 2210/2306 00000KT P6SM OVC045
     FM221600 14004KT 6SM BR OVC015
     FM221900 12005KT 4SM BR VCSH OVC015
     FM222000 11006KT 3SM BR VCSH OVC020
     FM230200 13009KT 3SM BR VCSH OVC040
     FM230500 16011KT 3SM BR OVC060=

USA.gov is the U.S. government's official web portal to all federal, state and local government web resources and services.